sensor_id;sensor_type;location;lat;lon;timestamp;pressure;altitude;pressure_sealevel;temperature;humidity
6395;BME280;3230;42.588;23.358;2023-07-22T00:02:12;91149.72;;;22.67;nan
6395;BME280;3230;42.588;23.358;2023-07-22T00:04:38;91152.38;;;22.67;nan
6395;BME280;3230;42.588;23.358;2023-07-22T00:07:03;91159.09;;;22.61;nan
6395;BME280;3230;42.588;23.358;2023-07-22T00:09:29;91161.50;;;22.50;nan
6395;BME280;3230;42.588;23.358;2023-07-22T00:11:54;91163.78;;;22.64;nan
6395;BME280;3230;42.588;23.358;2023-07-22T00:14:19;91164.53;;;22.65;nan
6395;BME280;3230;42.588;23.358;2023-07-22T00:16:45;91158.84;;;22.50;nan
6395;BME280;3230;42.588;23.358;2023-07-22T00:19:10;91159.47;;;22.44;nan
6395;BME280;3230;42.588;23.358;2023-07-22T00:21:35;91166.13;;;22.38;nan
6395;BME280;3230;42.588;23.358;2023-07-22T00:24:01;91167.94;;;22.33;nan
6395;BME280;3230;42.588;23.358;2023-07-22T00:26:26;91169.66;;;22.26;nan
6395;BME280;3230;42.588;23.358;2023-07-22T00:28:52;91173.06;;;22.26;nan
6395;BME280;3230;42.588;23.358;2023-07-22T00:31:17;91173.06;;;22.26;nan
6395;BME280;3230;42.588;23.358;2023-07-22T00:33:43;91171.00;;;22.19;nan
6395;BME280;3230;42.588;23.358;2023-07-22T00:36:08;91173.31;;;22.05;nan
6395;BME280;3230;42.588;23.358;2023-07-22T00:38:33;91182.81;;;21.90;nan
6395;BME280;3230;42.588;23.358;2023-07-22T00:40:59;91181.16;;;21.85;nan
6395;BME280;3230;42.588;23.358;2023-07-22T00:43:24;91179.13;;;21.95;nan
6395;BME280;3230;42.588;23.358;2023-07-22T00:45:51;91187.03;;;21.91;nan
6395;BME280;3230;42.588;23.358;2023-07-22T00:48:17;91174.38;;;21.88;nan
6395;BME280;3230;42.588;23.358;2023-07-22T00:50:43;91180.19;;;21.78;nan
6395;BME280;3230;42.588;23.358;2023-07-22T00:53:10;91186.75;;;21.80;nan
6395;BME280;3230;42.588;23.358;2023-07-22T00:55:38;91182.66;;;21.70;nan
6395;BME280;3230;42.588;23.358;2023-07-22T00:58:04;91185.53;;;21.65;nan
6395;BME280;3230;42.588;23.358;2023-07-22T01:00:30;91188.91;;;21.62;nan
6395;BME280;3230;42.588;23.358;2023-07-22T01:02:57;91189.00;;;21.53;nan
6395;BME280;3230;42.588;23.358;2023-07-22T01:05:24;91184.69;;;21.49;nan
6395;BME280;3230;42.588;23.358;2023-07-22T01:07:51;91179.81;;;21.51;nan
6395;BME280;3230;42.588;23.358;2023-07-22T01:10:16;91181.22;;;21.48;nan
6395;BME280;3230;42.588;23.358;2023-07-22T01:12:43;91187.13;;;21.41;nan
6395;BME280;3230;42.588;23.358;2023-07-22T01:15:09;91181.38;;;21.27;nan
6395;BME280;3230;42.588;23.358;2023-07-22T01:17:37;91174.72;;;21.21;nan
6395;BME280;3230;42.588;23.358;2023-07-22T01:20:03;91168.84;;;21.28;nan
6395;BME280;3230;42.588;23.358;2023-07-22T01:22:29;91163.06;;;21.25;nan
6395;BME280;3230;42.588;23.358;2023-07-22T01:24:55;91156.53;;;21.23;nan
6395;BME280;3230;42.588;23.358;2023-07-22T01:27:21;91155.31;;;21.20;nan
6395;BME280;3230;42.588;23.358;2023-07-22T01:29:50;91154.22;;;20.97;nan
6395;BME280;3230;42.588;23.358;2023-07-22T01:32:16;91161.00;;;20.82;nan
6395;BME280;3230;42.588;23.358;2023-07-22T01:34:42;91157.97;;;20.58;nan
6395;BME280;3230;42.588;23.358;2023-07-22T01:37:07;91164.94;;;20.51;nan
6395;BME280;3230;42.588;23.358;2023-07-22T01:39:35;91165.63;;;20.60;nan
6395;BME280;3230;42.588;23.358;2023-07-22T01:42:00;91161.28;;;20.55;nan
6395;BME280;3230;42.588;23.358;2023-07-22T01:44:25;91140.53;;;20.36;nan
6395;BME280;3230;42.588;23.358;2023-07-22T01:46:51;91163.19;;;20.55;nan
6395;BME280;3230;42.588;23.358;2023-07-22T01:49:16;91146.63;;;20.49;nan
6395;BME280;3230;42.588;23.358;2023-07-22T01:51:41;91150.47;;;20.15;nan
6395;BME280;3230;42.588;23.358;2023-07-22T01:54:07;91141.91;;;20.09;nan
6395;BME280;3230;42.588;23.358;2023-07-22T01:56:34;91133.19;;;20.21;nan
6395;BME280;3230;42.588;23.358;2023-07-22T01:59:00;91141.84;;;20.30;nan
6395;BME280;3230;42.588;23.358;2023-07-22T02:01:29;91131.41;;;20.25;nan
6395;BME280;3230;42.588;23.358;2023-07-22T02:03:55;91143.81;;;20.08;nan
6395;BME280;3230;42.588;23.358;2023-07-22T02:06:20;91138.06;;;20.31;nan
6395;BME280;3230;42.588;23.358;2023-07-22T02:08:46;91148.25;;;20.17;nan
6395;BME280;3230;42.588;23.358;2023-07-22T02:11:11;91150.91;;;20.17;nan
6395;BME280;3230;42.588;23.358;2023-07-22T02:13:37;91148.09;;;20.01;nan
6395;BME280;3230;42.588;23.358;2023-07-22T02:16:03;91141.84;;;19.84;nan
6395;BME280;3230;42.588;23.358;2023-07-22T02:18:29;91135.28;;;19.81;nan
6395;BME280;3230;42.588;23.358;2023-07-22T02:20:55;91140.22;;;19.49;nan
6395;BME280;3230;42.588;23.358;2023-07-22T02:23:21;91142.59;;;19.51;nan
6395;BME280;3230;42.588;23.358;2023-07-22T02:25:54;91137.75;;;19.65;nan
6395;BME280;3230;42.588;23.358;2023-07-22T02:28:20;91140.69;;;19.52;nan
6395;BME280;3230;42.588;23.358;2023-07-22T02:30:51;91137.97;;;19.60;nan
6395;BME280;3230;42.588;23.358;2023-07-22T02:33:18;91137.63;;;19.62;nan
6395;BME280;3230;42.588;23.358;2023-07-22T02:35:43;91137.69;;;19.74;nan
6395;BME280;3230;42.588;23.358;2023-07-22T02:38:08;91142.63;;;19.85;nan
6395;BME280;3230;42.588;23.358;2023-07-22T02:40:37;91148.41;;;19.87;nan
6395;BME280;3230;42.588;23.358;2023-07-22T02:43:03;91137.88;;;19.90;nan
6395;BME280;3230;42.588;23.358;2023-07-22T02:45:29;91142.41;;;19.90;nan
6395;BME280;3230;42.588;23.358;2023-07-22T02:47:54;91145.06;;;19.90;nan
6395;BME280;3230;42.588;23.358;2023-07-22T02:50:20;91137.44;;;19.88;nan
6395;BME280;3230;42.588;23.358;2023-07-22T02:52:45;91148.94;;;19.92;nan
6395;BME280;3230;42.588;23.358;2023-07-22T02:55:16;91155.81;;;19.93;nan
6395;BME280;3230;42.588;23.358;2023-07-22T02:57:45;91155.69;;;19.90;nan
6395;BME280;3230;42.588;23.358;2023-07-22T03:00:16;91156.16;;;19.92;nan
6395;BME280;3230;42.588;23.358;2023-07-22T03:02:52;91148.63;;;19.73;nan
6395;BME280;3230;42.588;23.358;2023-07-22T03:05:18;91150.66;;;19.76;nan
6395;BME280;3230;42.588;23.358;2023-07-22T03:07:44;91146.22;;;19.80;nan
6395;BME280;3230;42.588;23.358;2023-07-22T03:10:10;91152.72;;;19.70;nan
6395;BME280;3230;42.588;23.358;2023-07-22T03:12:36;91149.50;;;19.64;nan
6395;BME280;3230;42.588;23.358;2023-07-22T03:15:02;91147.81;;;19.60;nan
6395;BME280;3230;42.588;23.358;2023-07-22T03:17:34;91147.16;;;19.63;nan
6395;BME280;3230;42.588;23.358;2023-07-22T03:20:01;91145.16;;;19.60;nan
6395;BME280;3230;42.588;23.358;2023-07-22T03:22:26;91148.59;;;19.60;nan
6395;BME280;3230;42.588;23.358;2023-07-22T03:24:52;91151.38;;;19.64;nan
6395;BME280;3230;42.588;23.358;2023-07-22T03:27:17;91147.03;;;19.80;nan
6395;BME280;3230;42.588;23.358;2023-07-22T03:29:43;91146.38;;;19.84;nan
6395;BME280;3230;42.588;23.358;2023-07-22T03:32:08;91152.00;;;19.82;nan
6395;BME280;3230;42.588;23.358;2023-07-22T03:34:34;91159.28;;;19.94;nan
6395;BME280;3230;42.588;23.358;2023-07-22T03:37:00;91153.09;;;20.02;nan
6395;BME280;3230;42.588;23.358;2023-07-22T03:39:25;91154.84;;;19.98;nan
6395;BME280;3230;42.588;23.358;2023-07-22T03:41:51;91160.84;;;19.95;nan
6395;BME280;3230;42.588;23.358;2023-07-22T03:44:16;91161.28;;;19.97;nan
6395;BME280;3230;42.588;23.358;2023-07-22T03:46:42;91163.16;;;19.96;nan
6395;BME280;3230;42.588;23.358;2023-07-22T03:49:07;91160.97;;;19.99;nan
6395;BME280;3230;42.588;23.358;2023-07-22T03:51:33;91180.28;;;20.20;nan
6395;BME280;3230;42.588;23.358;2023-07-22T03:53:59;91188.44;;;20.36;nan
6395;BME280;3230;42.588;23.358;2023-07-22T03:56:25;91187.34;;;20.50;nan
6395;BME280;3230;42.588;23.358;2023-07-22T03:58:51;91192.81;;;20.66;nan
6395;BME280;3230;42.588;23.358;2023-07-22T04:01:16;91193.72;;;20.82;nan
6395;BME280;3230;42.588;23.358;2023-07-22T04:03:42;91191.63;;;21.00;nan
6395;BME280;3230;42.588;23.358;2023-07-22T04:06:07;91197.50;;;21.18;nan
6395;BME280;3230;42.588;23.358;2023-07-22T04:08:32;91196.94;;;21.37;nan
6395;BME280;3230;42.588;23.358;2023-07-22T04:10:58;91195.81;;;21.51;nan
6395;BME280;3230;42.588;23.358;2023-07-22T04:13:25;91185.78;;;21.60;nan
6395;BME280;3230;42.588;23.358;2023-07-22T04:15:51;91188.88;;;21.75;nan
6395;BME280;3230;42.588;23.358;2023-07-22T04:18:18;91192.78;;;21.93;nan
6395;BME280;3230;42.588;23.358;2023-07-22T04:20:44;91190.72;;;22.15;nan
6395;BME280;3230;42.588;23.358;2023-07-22T04:23:10;91192.97;;;22.41;nan
6395;BME280;3230;42.588;23.358;2023-07-22T04:25:40;91207.25;;;22.49;nan
6395;BME280;3230;42.588;23.358;2023-07-22T04:28:05;91198.41;;;22.77;nan
6395;BME280;3230;42.588;23.358;2023-07-22T04:30:31;91208.75;;;22.94;nan
6395;BME280;3230;42.588;23.358;2023-07-22T04:32:56;91214.34;;;22.89;nan
6395;BME280;3230;42.588;23.358;2023-07-22T04:35:21;91205.28;;;23.10;nan
6395;BME280;3230;42.588;23.358;2023-07-22T04:37:47;91212.16;;;23.43;nan
6395;BME280;3230;42.588;23.358;2023-07-22T04:40:12;91213.56;;;23.72;nan
6395;BME280;3230;42.588;23.358;2023-07-22T04:42:42;91216.28;;;24.31;nan
6395;BME280;3230;42.588;23.358;2023-07-22T04:45:09;91228.47;;;24.68;nan
6395;BME280;3230;42.588;23.358;2023-07-22T04:47:35;91222.03;;;25.69;nan
6395;BME280;3230;42.588;23.358;2023-07-22T04:50:02;91228.03;;;26.54;nan
6395;BME280;3230;42.588;23.358;2023-07-22T04:52:28;91224.09;;;28.42;nan
6395;BME280;3230;42.588;23.358;2023-07-22T04:54:53;91225.09;;;30.86;nan
6395;BME280;3230;42.588;23.358;2023-07-22T04:57:20;91228.59;;;31.88;nan
6395;BME280;3230;42.588;23.358;2023-07-22T04:59:46;91229.03;;;32.91;nan
6395;BME280;3230;42.588;23.358;2023-07-22T05:02:12;91239.72;;;33.84;nan
6395;BME280;3230;42.588;23.358;2023-07-22T05:04:37;91236.25;;;34.47;nan
6395;BME280;3230;42.588;23.358;2023-07-22T05:07:03;91239.16;;;34.77;nan
6395;BME280;3230;42.588;23.358;2023-07-22T05:09:28;91238.88;;;34.71;nan
6395;BME280;3230;42.588;23.358;2023-07-22T05:11:54;91234.75;;;34.83;nan
6395;BME280;3230;42.588;23.358;2023-07-22T05:14:19;91236.09;;;33.90;nan
6395;BME280;3230;42.588;23.358;2023-07-22T05:16:45;91230.69;;;33.12;nan
6395;BME280;3230;42.588;23.358;2023-07-22T05:19:10;91237.53;;;32.93;nan
6395;BME280;3230;42.588;23.358;2023-07-22T05:21:36;91248.88;;;34.57;nan
6395;BME280;3230;42.588;23.358;2023-07-22T05:24:01;91253.22;;;36.73;nan
6395;BME280;3230;42.588;23.358;2023-07-22T05:26:27;91251.78;;;36.98;nan
6395;BME280;3230;42.588;23.358;2023-07-22T05:28:56;91256.41;;;36.26;nan
6395;BME280;3230;42.588;23.358;2023-07-22T05:31:21;91257.50;;;36.74;nan
6395;BME280;3230;42.588;23.358;2023-07-22T05:33:46;91256.53;;;37.88;nan
6395;BME280;3230;42.588;23.358;2023-07-22T05:36:12;91247.63;;;36.93;nan
6395;BME280;3230;42.588;23.358;2023-07-22T05:38:37;91248.31;;;37.23;nan
6395;BME280;3230;42.588;23.358;2023-07-22T05:41:03;91247.28;;;36.91;nan
6395;BME280;3230;42.588;23.358;2023-07-22T05:43:28;91244.75;;;36.42;nan
6395;BME280;3230;42.588;23.358;2023-07-22T05:45:53;91245.25;;;36.95;nan
6395;BME280;3230;42.588;23.358;2023-07-22T05:48:19;91247.13;;;37.63;nan
6395;BME280;3230;42.588;23.358;2023-07-22T05:50:46;91257.34;;;38.11;nan
6395;BME280;3230;42.588;23.358;2023-07-22T05:53:13;91262.22;;;37.81;nan
6395;BME280;3230;42.588;23.358;2023-07-22T05:55:38;91268.31;;;37.98;nan
6395;BME280;3230;42.588;23.358;2023-07-22T05:58:04;91265.53;;;38.23;nan
6395;BME280;3230;42.588;23.358;2023-07-22T06:00:32;91274.38;;;38.63;nan
6395;BME280;3230;42.588;23.358;2023-07-22T06:02:58;91262.66;;;37.53;nan
6395;BME280;3230;42.588;23.358;2023-07-22T06:05:23;91266.38;;;37.59;nan
6395;BME280;3230;42.588;23.358;2023-07-22T06:07:48;91271.75;;;37.50;nan
6395;BME280;3230;42.588;23.358;2023-07-22T06:10:14;91263.19;;;37.22;nan
6395;BME280;3230;42.588;23.358;2023-07-22T06:12:39;91272.59;;;37.86;nan
6395;BME280;3230;42.588;23.358;2023-07-22T06:15:06;91277.97;;;37.89;nan
6395;BME280;3230;42.588;23.358;2023-07-22T06:17:32;91288.78;;;38.98;nan
6395;BME280;3230;42.588;23.358;2023-07-22T06:19:58;91292.28;;;38.77;nan
6395;BME280;3230;42.588;23.358;2023-07-22T06:22:23;91294.47;;;39.04;nan
6395;BME280;3230;42.588;23.358;2023-07-22T06:24:49;91298.19;;;38.75;nan
6395;BME280;3230;42.588;23.358;2023-07-22T06:27:14;91281.28;;;40.43;nan
6395;BME280;3230;42.588;23.358;2023-07-22T06:29:40;91302.34;;;39.24;nan
6395;BME280;3230;42.588;23.358;2023-07-22T06:32:05;91305.69;;;39.50;nan
6395;BME280;3230;42.588;23.358;2023-07-22T06:34:31;91313.97;;;40.79;nan
6395;BME280;3230;42.588;23.358;2023-07-22T06:36:57;91318.75;;;40.19;nan
6395;BME280;3230;42.588;23.358;2023-07-22T06:39:22;91325.06;;;40.47;nan
6395;BME280;3230;42.588;23.358;2023-07-22T06:41:48;91311.53;;;40.62;nan
6395;BME280;3230;42.588;23.358;2023-07-22T06:44:13;91315.13;;;40.31;nan
6395;BME280;3230;42.588;23.358;2023-07-22T06:46:38;91316.56;;;40.82;nan
6395;BME280;3230;42.588;23.358;2023-07-22T06:49:04;91327.41;;;40.08;nan
6395;BME280;3230;42.588;23.358;2023-07-22T06:51:29;91317.94;;;40.96;nan
6395;BME280;3230;42.588;23.358;2023-07-22T06:53:54;91319.97;;;40.18;nan
6395;BME280;3230;42.588;23.358;2023-07-22T06:56:20;91330.44;;;41.16;nan
6395;BME280;3230;42.588;23.358;2023-07-22T06:58:45;91326.94;;;42.19;nan
6395;BME280;3230;42.588;23.358;2023-07-22T07:01:12;91325.25;;;42.71;nan
6395;BME280;3230;42.588;23.358;2023-07-22T07:03:37;91314.41;;;41.14;nan
6395;BME280;3230;42.588;23.358;2023-07-22T07:06:03;91310.78;;;40.11;nan
6395;BME280;3230;42.588;23.358;2023-07-22T07:08:28;91318.16;;;41.54;nan
6395;BME280;3230;42.588;23.358;2023-07-22T07:10:53;91316.56;;;42.14;nan
6395;BME280;3230;42.588;23.358;2023-07-22T07:13:19;91315.75;;;41.90;nan
6395;BME280;3230;42.588;23.358;2023-07-22T07:15:47;91308.63;;;41.03;nan
6395;BME280;3230;42.588;23.358;2023-07-22T07:18:15;91318.22;;;41.78;nan
6395;BME280;3230;42.588;23.358;2023-07-22T07:20:41;91320.94;;;42.79;nan
6395;BME280;3230;42.588;23.358;2023-07-22T07:23:07;91314.81;;;41.50;nan
6395;BME280;3230;42.588;23.358;2023-07-22T07:25:32;91305.19;;;40.15;nan
6395;BME280;3230;42.588;23.358;2023-07-22T07:27:57;91306.91;;;39.49;nan
6395;BME280;3230;42.588;23.358;2023-07-22T07:30:23;91297.34;;;40.73;nan
6395;BME280;3230;42.588;23.358;2023-07-22T07:32:48;91301.94;;;42.32;nan
6395;BME280;3230;42.588;23.358;2023-07-22T07:35:13;91292.28;;;40.53;nan
6395;BME280;3230;42.588;23.358;2023-07-22T07:37:39;91289.31;;;41.40;nan
6395;BME280;3230;42.588;23.358;2023-07-22T07:40:05;91289.06;;;41.71;nan
6395;BME280;3230;42.588;23.358;2023-07-22T07:42:30;91291.53;;;41.69;nan
6395;BME280;3230;42.588;23.358;2023-07-22T07:44:56;91290.97;;;42.23;nan
6395;BME280;3230;42.588;23.358;2023-07-22T07:47:21;91291.88;;;42.93;nan
6395;BME280;3230;42.588;23.358;2023-07-22T07:49:46;91299.19;;;43.86;nan
6395;BME280;3230;42.588;23.358;2023-07-22T07:52:12;91299.09;;;42.90;nan
6395;BME280;3230;42.588;23.358;2023-07-22T07:54:37;91298.53;;;41.18;nan
6395;BME280;3230;42.588;23.358;2023-07-22T07:57:03;91307.88;;;43.19;nan
6395;BME280;3230;42.588;23.358;2023-07-22T07:59:28;91301.75;;;42.60;nan
6395;BME280;3230;42.588;23.358;2023-07-22T08:01:54;91297.53;;;42.50;nan
6395;BME280;3230;42.588;23.358;2023-07-22T08:04:20;91300.31;;;42.89;nan
6395;BME280;3230;42.588;23.358;2023-07-22T08:06:45;91293.19;;;41.15;nan
6395;BME280;3230;42.588;23.358;2023-07-22T08:09:10;91288.31;;;41.71;nan
6395;BME280;3230;42.588;23.358;2023-07-22T08:11:37;91283.69;;;41.77;nan
6395;BME280;3230;42.588;23.358;2023-07-22T08:14:03;91292.66;;;43.53;nan
6395;BME280;3230;42.588;23.358;2023-07-22T08:16:30;91309.31;;;44.24;nan
6395;BME280;3230;42.588;23.358;2023-07-22T08:18:55;91292.50;;;44.43;nan
6395;BME280;3230;42.588;23.358;2023-07-22T08:21:21;91288.34;;;43.82;nan
6395;BME280;3230;42.588;23.358;2023-07-22T08:23:46;91288.50;;;42.01;nan
6395;BME280;3230;42.588;23.358;2023-07-22T08:26:12;91294.00;;;42.74;nan
6395;BME280;3230;42.588;23.358;2023-07-22T08:28:38;91293.22;;;43.27;nan
6395;BME280;3230;42.588;23.358;2023-07-22T08:31:04;91285.69;;;42.10;nan
6395;BME280;3230;42.588;23.358;2023-07-22T08:33:30;91286.91;;;42.97;nan
6395;BME280;3230;42.588;23.358;2023-07-22T08:35:56;91294.88;;;44.15;nan
6395;BME280;3230;42.588;23.358;2023-07-22T08:38:21;91286.91;;;45.26;nan
6395;BME280;3230;42.588;23.358;2023-07-22T08:40:49;91289.97;;;45.07;nan
6395;BME280;3230;42.588;23.358;2023-07-22T08:43:19;91279.00;;;43.29;nan
6395;BME280;3230;42.588;23.358;2023-07-22T08:45:47;91278.56;;;42.91;nan
6395;BME280;3230;42.588;23.358;2023-07-22T08:48:15;91267.94;;;43.44;nan
6395;BME280;3230;42.588;23.358;2023-07-22T08:53:16;91262.84;;;43.22;nan
6395;BME280;3230;42.588;23.358;2023-07-22T08:55:42;91269.63;;;43.71;nan
6395;BME280;3230;42.588;23.358;2023-07-22T08:58:09;91249.72;;;43.17;nan
6395;BME280;3230;42.588;23.358;2023-07-22T09:00:35;91245.09;;;43.73;nan
6395;BME280;3230;42.588;23.358;2023-07-22T09:03:01;91242.84;;;43.12;nan
6395;BME280;3230;42.588;23.358;2023-07-22T09:05:27;91230.59;;;42.59;nan
6395;BME280;3230;42.588;23.358;2023-07-22T09:07:53;91239.34;;;41.84;nan
6395;BME280;3230;42.588;23.358;2023-07-22T09:10:20;91232.47;;;42.38;nan
6395;BME280;3230;42.588;23.358;2023-07-22T09:12:46;91234.97;;;42.26;nan
6395;BME280;3230;42.588;23.358;2023-07-22T09:15:12;91229.91;;;40.25;nan
6395;BME280;3230;42.588;23.358;2023-07-22T09:17:39;91225.84;;;38.63;nan
6395;BME280;3230;42.588;23.358;2023-07-22T09:20:05;91217.16;;;37.72;nan
6395;BME280;3230;42.588;23.358;2023-07-22T09:55:20;91207.31;;;33.45;nan
6395;BME280;3230;42.588;23.358;2023-07-22T09:57:49;91204.59;;;33.18;nan
6395;BME280;3230;42.588;23.358;2023-07-22T10:00:16;91209.13;;;33.01;nan
6395;BME280;3230;42.588;23.358;2023-07-22T10:02:43;91212.63;;;32.98;nan
6395;BME280;3230;42.588;23.358;2023-07-22T10:05:14;91213.97;;;33.13;nan
6395;BME280;3230;42.588;23.358;2023-07-22T10:07:43;91197.44;;;33.31;nan
6395;BME280;3230;42.588;23.358;2023-07-22T10:10:11;91199.56;;;33.44;nan
6395;BME280;3230;42.588;23.358;2023-07-22T10:12:40;91206.84;;;33.51;nan
6395;BME280;3230;42.588;23.358;2023-07-22T10:15:07;91204.06;;;33.78;nan
6395;BME280;3230;42.588;23.358;2023-07-22T10:17:33;91210.03;;;33.69;nan
6395;BME280;3230;42.588;23.358;2023-07-22T10:19:59;91215.16;;;33.40;nan
6395;BME280;3230;42.588;23.358;2023-07-22T10:22:24;91213.28;;;33.60;nan
6395;BME280;3230;42.588;23.358;2023-07-22T10:24:52;91215.34;;;33.76;nan
6395;BME280;3230;42.588;23.358;2023-07-22T10:27:18;91206.84;;;33.74;nan
6395;BME280;3230;42.588;23.358;2023-07-22T10:29:45;91210.47;;;33.91;nan
6395;BME280;3230;42.588;23.358;2023-07-22T10:32:11;91214.78;;;34.09;nan
6395;BME280;3230;42.588;23.358;2023-07-22T10:34:36;91214.66;;;34.16;nan
6395;BME280;3230;42.588;23.358;2023-07-22T10:37:02;91210.81;;;34.14;nan
6395;BME280;3230;42.588;23.358;2023-07-22T10:39:29;91210.47;;;33.91;nan
6395;BME280;3230;42.588;23.358;2023-07-22T10:42:04;91211.41;;;34.25;nan
6395;BME280;3230;42.588;23.358;2023-07-22T10:44:32;91215.16;;;34.11;nan
6395;BME280;3230;42.588;23.358;2023-07-22T10:46:58;91217.00;;;33.94;nan
6395;BME280;3230;42.588;23.358;2023-07-22T10:49:28;91222.75;;;34.20;nan
6395;BME280;3230;42.588;23.358;2023-07-22T10:52:07;91205.44;;;33.90;nan
6395;BME280;3230;42.588;23.358;2023-07-22T10:54:35;91206.91;;;34.38;nan
6395;BME280;3230;42.588;23.358;2023-07-22T10:57:23;91199.28;;;34.50;nan
6395;BME280;3230;42.588;23.358;2023-07-22T10:59:52;91192.03;;;34.63;nan
6395;BME280;3230;42.588;23.358;2023-07-22T11:02:28;91196.06;;;34.75;nan
6395;BME280;3230;42.588;23.358;2023-07-22T11:04:58;91201.06;;;34.77;nan
6395;BME280;3230;42.588;23.358;2023-07-22T11:07:44;91194.63;;;34.87;nan
6395;BME280;3230;42.588;23.358;2023-07-22T11:10:19;91181.94;;;35.17;nan
6395;BME280;3230;42.588;23.358;2023-07-22T11:12:45;91197.28;;;35.44;nan
6395;BME280;3230;42.588;23.358;2023-07-22T11:15:11;91200.28;;;35.49;nan
6395;BME280;3230;42.588;23.358;2023-07-22T11:17:39;91191.69;;;35.51;nan
6395;BME280;3230;42.588;23.358;2023-07-22T11:20:05;91189.63;;;35.55;nan
6395;BME280;3230;42.588;23.358;2023-07-22T11:22:31;91199.13;;;35.30;nan
6395;BME280;3230;42.588;23.358;2023-07-22T11:24:56;91196.75;;;35.16;nan
6395;BME280;3230;42.588;23.358;2023-07-22T11:27:23;91186.88;;;35.22;nan
6395;BME280;3230;42.588;23.358;2023-07-22T11:29:49;91193.34;;;35.12;nan
6395;BME280;3230;42.588;23.358;2023-07-22T11:32:18;91192.16;;;35.29;nan
6395;BME280;3230;42.588;23.358;2023-07-22T11:34:46;91185.13;;;35.48;nan
6395;BME280;3230;42.588;23.358;2023-07-22T11:37:11;91190.63;;;35.28;nan
6395;BME280;3230;42.588;23.358;2023-07-22T11:39:38;91177.50;;;35.23;nan
6395;BME280;3230;42.588;23.358;2023-07-22T11:42:04;91164.75;;;35.20;nan
6395;BME280;3230;42.588;23.358;2023-07-22T11:44:30;91168.81;;;35.28;nan
6395;BME280;3230;42.588;23.358;2023-07-22T11:47:03;91169.53;;;35.49;nan
6395;BME280;3230;42.588;23.358;2023-07-22T11:49:30;91167.31;;;35.60;nan
6395;BME280;3230;42.588;23.358;2023-07-22T11:52:01;91162.72;;;35.74;nan
6395;BME280;3230;42.588;23.358;2023-07-22T11:54:27;91167.47;;;35.69;nan
6395;BME280;3230;42.588;23.358;2023-07-22T11:56:54;91165.75;;;35.76;nan
6395;BME280;3230;42.588;23.358;2023-07-22T11:59:38;91174.28;;;35.78;nan
6395;BME280;3230;42.588;23.358;2023-07-22T12:02:05;91165.97;;;35.52;nan
6395;BME280;3230;42.588;23.358;2023-07-22T12:04:31;91158.63;;;35.65;nan
6395;BME280;3230;42.588;23.358;2023-07-22T12:06:57;91171.63;;;35.74;nan
6395;BME280;3230;42.588;23.358;2023-07-22T12:09:23;91177.03;;;36.07;nan
6395;BME280;3230;42.588;23.358;2023-07-22T12:11:55;91166.19;;;36.20;nan
6395;BME280;3230;42.588;23.358;2023-07-22T12:14:22;91167.56;;;36.12;nan
6395;BME280;3230;42.588;23.358;2023-07-22T12:16:55;91169.25;;;36.22;nan
6395;BME280;3230;42.588;23.358;2023-07-22T12:19:21;91168.31;;;36.12;nan
6395;BME280;3230;42.588;23.358;2023-07-22T12:21:46;91157.22;;;36.20;nan
6395;BME280;3230;42.588;23.358;2023-07-22T12:24:13;91156.66;;;36.12;nan
6395;BME280;3230;42.588;23.358;2023-07-22T12:26:39;91154.06;;;35.92;nan
6395;BME280;3230;42.588;23.358;2023-07-22T12:29:04;91151.22;;;36.12;nan
6395;BME280;3230;42.588;23.358;2023-07-22T12:31:30;91156.94;;;36.30;nan
6395;BME280;3230;42.588;23.358;2023-07-22T12:33:55;91151.72;;;36.36;nan
6395;BME280;3230;42.588;23.358;2023-07-22T12:36:20;91149.63;;;36.27;nan
6395;BME280;3230;42.588;23.358;2023-07-22T12:38:46;91145.34;;;36.56;nan
6395;BME280;3230;42.588;23.358;2023-07-22T12:41:11;91145.81;;;36.38;nan
6395;BME280;3230;42.588;23.358;2023-07-22T12:43:37;91146.56;;;36.68;nan
6395;BME280;3230;42.588;23.358;2023-07-22T12:46:02;91150.38;;;36.70;nan
6395;BME280;3230;42.588;23.358;2023-07-22T12:48:27;91133.97;;;36.44;nan
6395;BME280;3230;42.588;23.358;2023-07-22T12:50:53;91141.53;;;36.24;nan
6395;BME280;3230;42.588;23.358;2023-07-22T12:53:18;91137.13;;;36.43;nan
6395;BME280;3230;42.588;23.358;2023-07-22T12:55:44;91142.91;;;36.45;nan
6395;BME280;3230;42.588;23.358;2023-07-22T12:58:09;91147.31;;;36.55;nan
6395;BME280;3230;42.588;23.358;2023-07-22T13:00:34;91141.94;;;36.09;nan
6395;BME280;3230;42.588;23.358;2023-07-22T13:03:00;91137.03;;;35.88;nan
6395;BME280;3230;42.588;23.358;2023-07-22T13:05:25;91131.69;;;36.13;nan
6395;BME280;3230;42.588;23.358;2023-07-22T13:07:51;91131.06;;;36.22;nan
6395;BME280;3230;42.588;23.358;2023-07-22T13:10:17;91127.75;;;36.01;nan
6395;BME280;3230;42.588;23.358;2023-07-22T13:12:45;91124.91;;;36.05;nan
6395;BME280;3230;42.588;23.358;2023-07-22T13:15:11;91127.19;;;36.07;nan
6395;BME280;3230;42.588;23.358;2023-07-22T13:17:36;91111.97;;;36.22;nan
6395;BME280;3230;42.588;23.358;2023-07-22T13:20:03;91109.50;;;35.98;nan
6395;BME280;3230;42.588;23.358;2023-07-22T13:22:32;91111.41;;;36.14;nan
6395;BME280;3230;42.588;23.358;2023-07-22T13:24:57;91116.84;;;36.14;nan
6395;BME280;3230;42.588;23.358;2023-07-22T13:27:23;91109.88;;;36.13;nan
6395;BME280;3230;42.588;23.358;2023-07-22T13:29:48;91105.66;;;36.25;nan
6395;BME280;3230;42.588;23.358;2023-07-22T13:32:13;91099.34;;;36.28;nan
6395;BME280;3230;42.588;23.358;2023-07-22T13:34:39;91085.91;;;35.92;nan
6395;BME280;3230;42.588;23.358;2023-07-22T13:37:04;91106.53;;;35.93;nan
6395;BME280;3230;42.588;23.358;2023-07-22T13:39:31;91103.16;;;35.89;nan
6395;BME280;3230;42.588;23.358;2023-07-22T13:41:56;91106.94;;;35.62;nan
6395;BME280;3230;42.588;23.358;2023-07-22T13:44:21;91102.66;;;35.77;nan
6395;BME280;3230;42.588;23.358;2023-07-22T13:46:47;91103.16;;;35.72;nan
6395;BME280;3230;42.588;23.358;2023-07-22T13:49:13;91106.03;;;35.98;nan
6395;BME280;3230;42.588;23.358;2023-07-22T13:51:40;91102.78;;;36.16;nan
6395;BME280;3230;42.588;23.358;2023-07-22T13:54:06;91089.38;;;36.22;nan
6395;BME280;3230;42.588;23.358;2023-07-22T13:56:31;91088.69;;;36.05;nan
6395;BME280;3230;42.588;23.358;2023-07-22T13:58:57;91078.97;;;36.46;nan
6395;BME280;3230;42.588;23.358;2023-07-22T14:01:23;91087.59;;;36.57;nan
6395;BME280;3230;42.588;23.358;2023-07-22T14:03:49;91076.09;;;36.37;nan